Time;durP1;ratioP1;P1;durP2;ratioP2;P2;SDS_P1;SDS_P2;PMS_P1;PMS_P2;Temp;Humidity;BMP_temperature;BMP_pressure;BME280_temperature;BME280_humidity;BME280_pressure;Samples;Min_cycle;Max_cycle;Signal;HPM_P1;HPM_P2
2021/09/03 00:00:16;;;;;;;26.60;15.73;;;15.90;99.90;;;;;;4965027;28;20219;-68
2021/09/03 00:02:42;;;;;;;28.73;15.82;;;15.90;99.90;;;;;;4983558;28;20277;-69
2021/09/03 00:05:14;;;;;;;32.08;16.05;;;15.90;99.90;;;;;;4980514;28;20273;-68
2021/09/03 00:07:40;;;;;;;31.13;16.55;;;15.80;99.90;;;;;;4982280;28;20200;-70
2021/09/03 00:10:08;;;;;;;31.95;16.10;;;15.80;99.90;;;;;;4981910;28;20193;-70
2021/09/03 00:12:33;;;;;;;29.60;15.63;;;15.90;99.90;;;;;;4981414;28;20205;-72
2021/09/03 00:14:59;;;;;;;30.88;16.77;;;15.80;99.90;;;;;;4958747;28;20228;-68
2021/09/03 00:17:25;;;;;;;29.15;15.82;;;15.80;99.90;;;;;;4980228;28;20193;-69
2021/09/03 00:19:51;;;;;;;32.75;16.25;;;15.80;99.90;;;;;;4964885;28;20205;-68
2021/09/03 00:22:17;;;;;;;30.70;16.80;;;15.80;99.90;;;;;;4987295;28;20185;-67
2021/09/03 00:24:44;;;;;;;31.55;15.93;;;15.80;99.90;;;;;;4980615;28;20201;-69
2021/09/03 00:27:09;;;;;;;32.40;16.98;;;15.80;99.90;;;;;;4982218;28;20197;-71
2021/09/03 00:29:35;;;;;;;37.05;16.00;;;15.80;99.90;;;;;;4983005;28;20249;-69
2021/09/03 00:32:01;;;;;;;29.65;16.73;;;15.70;99.90;;;;;;4980761;28;20185;-69
2021/09/03 00:34:26;;;;;;;35.53;16.33;;;15.70;99.90;;;;;;4982411;28;20193;-67
2021/09/03 00:36:52;;;;;;;27.20;16.17;;;15.70;99.90;;;;;;4982692;28;20200;-68
2021/09/03 00:39:18;;;;;;;34.63;17.30;;;15.70;99.90;;;;;;4978485;28;20197;-70
2021/09/03 00:41:43;;;;;;;35.15;16.70;;;15.70;99.90;;;;;;4982032;28;20178;-67
2021/09/03 00:44:09;;;;;;;28.95;16.27;;;15.70;99.90;;;;;;4982225;28;20204;-69
2021/09/03 00:46:35;;;;;;;37.42;17.52;;;15.70;99.90;;;;;;4978922;28;20191;-70
2021/09/03 00:49:00;;;;;;;31.63;16.58;;;15.60;99.90;;;;;;4962128;28;20337;-70
2021/09/03 00:51:26;;;;;;;33.35;15.98;;;15.60;99.90;;;;;;4980347;28;20548;-69
2021/09/03 00:53:52;;;;;;;32.03;17.88;;;15.60;99.90;;;;;;4978585;28;20204;-71
2021/09/03 00:56:18;;;;;;;28.17;16.17;;;15.60;99.90;;;;;;4981079;28;20642;-70
2021/09/03 00:58:44;;;;;;;32.03;16.35;;;15.60;99.90;;;;;;4982429;28;20239;-70
2021/09/03 01:01:09;;;;;;;34.25;16.55;;;15.60;99.90;;;;;;4980410;28;20209;-69
2021/09/03 01:03:35;;;;;;;31.48;17.25;;;15.60;99.90;;;;;;4981285;28;20220;-68
2021/09/03 01:06:05;;;;;;;36.90;17.83;;;15.50;99.90;;;;;;4982803;28;20241;-69
2021/09/03 01:08:32;;;;;;;30.17;17.75;;;15.60;99.90;;;;;;4979799;28;20189;-68
2021/09/03 01:10:58;;;;;;;33.55;16.67;;;15.50;99.90;;;;;;4974415;28;20189;-67
2021/09/03 01:13:26;;;;;;;36.75;17.95;;;15.50;99.90;;;;;;4980821;28;20176;-69
2021/09/03 01:15:52;;;;;;;27.58;17.08;;;15.50;99.90;;;;;;4976654;28;20661;-69
2021/09/03 01:18:17;;;;;;;31.80;17.73;;;15.50;99.90;;;;;;4968064;28;20200;-70
2021/09/03 01:20:43;;;;;;;32.75;17.13;;;15.50;99.90;;;;;;4980171;28;20208;-67
2021/09/03 01:23:09;;;;;;;36.00;17.98;;;15.40;99.90;;;;;;4961821;28;20934;-71
2021/09/03 01:25:34;;;;;;;35.40;18.00;;;15.40;99.90;;;;;;4961176;28;20272;-68
2021/09/03 01:28:00;;;;;;;33.65;17.42;;;15.40;99.90;;;;;;4976371;28;20187;-68
2021/09/03 01:30:26;;;;;;;31.88;17.67;;;15.40;99.90;;;;;;4980039;28;20235;-71
2021/09/03 01:32:51;;;;;;;29.35;16.80;;;15.40;99.90;;;;;;4974086;28;20203;-68
2021/09/03 01:35:17;;;;;;;31.10;17.15;;;15.40;99.90;;;;;;4975666;28;20277;-68
2021/09/03 01:37:43;;;;;;;30.73;17.20;;;15.40;99.90;;;;;;4978510;28;20211;-69
2021/09/03 01:40:10;;;;;;;39.78;17.98;;;15.40;99.90;;;;;;4977871;28;20219;-69
2021/09/03 01:42:36;;;;;;;35.05;18.23;;;15.30;99.90;;;;;;4978360;28;20182;-70
2021/09/03 01:45:03;;;;;;;35.63;18.67;;;15.30;99.90;;;;;;4978536;28;20562;-68
2021/09/03 01:47:29;;;;;;;35.63;18.25;;;15.30;99.90;;;;;;4982805;28;20239;-68
2021/09/03 01:49:55;;;;;;;33.72;17.75;;;15.30;99.90;;;;;;4985469;28;20651;-69
2021/09/03 01:52:21;;;;;;;36.38;17.83;;;15.30;99.90;;;;;;4978193;28;20260;-68
2021/09/03 01:54:46;;;;;;;37.30;17.75;;;15.20;99.90;;;;;;4982404;28;20189;-70
2021/09/03 01:57:12;;;;;;;34.65;17.17;;;15.20;99.90;;;;;;4978047;28;20229;-71
2021/09/03 01:59:38;;;;;;;37.08;18.90;;;15.20;99.90;;;;;;4979438;28;20224;-70
2021/09/03 02:02:03;;;;;;;30.85;17.50;;;15.20;99.90;;;;;;4978015;28;20191;-70
2021/09/03 02:04:29;;;;;;;32.75;17.38;;;15.20;99.90;;;;;;4976785;28;20666;-70
2021/09/03 02:06:55;;;;;;;34.78;17.95;;;15.20;99.90;;;;;;4980037;28;20181;-71
2021/09/03 02:09:20;;;;;;;34.92;18.27;;;15.20;99.90;;;;;;4975071;28;20530;-70
2021/09/03 02:11:46;;;;;;;35.00;18.30;;;15.20;99.90;;;;;;4980029;28;20191;-70
2021/09/03 02:14:12;;;;;;;36.40;18.13;;;15.20;99.90;;;;;;4967060;28;20236;-70
2021/09/03 02:16:37;;;;;;;31.15;17.73;;;15.20;99.90;;;;;;4982529;28;20294;-68
2021/09/03 02:19:03;;;;;;;32.42;17.40;;;15.20;99.90;;;;;;4957341;28;20178;-68
2021/09/03 02:21:29;;;;;;;37.03;18.80;;;15.20;99.90;;;;;;4980866;28;20288;-68
2021/09/03 02:23:54;;;;;;;32.67;17.23;;;15.20;99.90;;;;;;4977892;28;20189;-69
2021/09/03 02:26:20;;;;;;;36.25;17.50;;;15.20;99.90;;;;;;4974763;28;20190;-69
2021/09/03 02:28:46;;;;;;;29.88;16.90;;;15.20;99.90;;;;;;4958900;28;20197;-71
2021/09/03 02:31:11;;;;;;;36.15;18.27;;;15.20;99.90;;;;;;4978550;28;20657;-71
2021/09/03 02:33:37;;;;;;;36.20;18.35;;;15.20;99.90;;;;;;4972847;28;20200;-69
2021/09/03 02:36:03;;;;;;;34.00;18.27;;;15.20;99.90;;;;;;4978063;28;20728;-69
2021/09/03 02:38:29;;;;;;;31.23;17.77;;;15.20;99.90;;;;;;4979115;28;20189;-68
2021/09/03 02:40:54;;;;;;;39.53;18.35;;;15.20;99.90;;;;;;4971028;28;21363;-69
2021/09/03 02:43:20;;;;;;;36.35;17.42;;;15.20;99.90;;;;;;4974697;28;20213;-68
2021/09/03 02:45:46;;;;;;;34.50;17.70;;;15.10;99.90;;;;;;4977903;28;20185;-66
2021/09/03 02:48:11;;;;;;;37.70;18.35;;;15.10;99.90;;;;;;4972379;28;20242;-68
2021/09/03 02:50:37;;;;;;;30.90;18.13;;;15.10;99.90;;;;;;4976919;28;20421;-69
2021/09/03 02:53:03;;;;;;;32.58;17.67;;;15.10;99.90;;;;;;4977695;28;20193;-70
2021/09/03 02:55:29;;;;;;;34.67;17.38;;;15.10;99.90;;;;;;4973021;28;20188;-68
2021/09/03 02:57:56;;;;;;;37.72;19.05;;;15.10;99.90;;;;;;4977695;28;20641;-67
2021/09/03 03:00:22;;;;;;;40.40;18.73;;;15.10;99.90;;;;;;4975412;28;20225;-68
2021/09/03 03:02:48;;;;;;;33.60;18.10;;;15.10;99.90;;;;;;4972091;28;20018;-68
2021/09/03 03:05:14;;;;;;;35.33;18.58;;;15.00;99.90;;;;;;4976942;28;20218;-67
2021/09/03 03:07:40;;;;;;;36.20;19.25;;;15.00;99.90;;;;;;4980395;28;20185;-68
2021/09/03 03:10:07;;;;;;;35.75;17.30;;;15.00;99.90;;;;;;4979332;28;20189;-68
2021/09/03 03:12:33;;;;;;;33.22;17.35;;;15.00;99.90;;;;;;4957000;28;19986;-68
2021/09/03 03:14:59;;;;;;;34.90;18.27;;;15.00;99.90;;;;;;4941302;28;1080471;-67
2021/09/03 03:17:26;;;;;;;40.80;19.33;;;15.00;99.90;;;;;;4973273;28;20280;-69
2021/09/03 03:19:51;;;;;;;36.88;19.05;;;15.00;99.90;;;;;;4959716;28;20225;-69
2021/09/03 03:22:17;;;;;;;33.63;18.50;;;15.00;99.90;;;;;;4981536;28;20189;-70
2021/09/03 03:24:43;;;;;;;36.33;18.25;;;15.00;99.90;;;;;;4975758;28;20236;-69
2021/09/03 03:27:09;;;;;;;36.03;19.73;;;15.00;99.90;;;;;;4958754;28;20195;-71
2021/09/03 03:29:34;;;;;;;36.30;19.15;;;14.90;99.90;;;;;;4977802;28;20185;-70
2021/09/03 03:32:00;;;;;;;38.72;18.77;;;14.90;99.90;;;;;;4975212;28;20250;-70
2021/09/03 03:34:26;;;;;;;38.47;18.88;;;14.90;99.90;;;;;;4980118;28;20602;-68
2021/09/03 03:36:51;;;;;;;44.05;19.58;;;14.90;99.90;;;;;;4972665;28;20207;-70
2021/09/03 03:39:17;;;;;;;37.10;20.00;;;14.90;99.90;;;;;;4976090;28;20188;-68
2021/09/03 03:41:43;;;;;;;36.55;20.25;;;14.90;99.90;;;;;;4972309;28;20210;-69
2021/09/03 03:44:09;;;;;;;41.45;21.15;;;14.90;99.90;;;;;;4975984;28;20204;-69
2021/09/03 03:46:34;;;;;;;43.15;22.23;;;14.90;99.90;;;;;;4975731;28;20662;-69
2021/09/03 03:49:00;;;;;;;44.15;24.88;;;14.90;99.90;;;;;;4983365;28;20201;-68
2021/09/03 03:51:26;;;;;;;49.67;25.75;;;14.90;99.90;;;;;;4972610;28;20193;-69
2021/09/03 03:53:51;;;;;;;46.65;23.20;;;14.90;99.90;;;;;;4975176;28;20904;-68
2021/09/03 03:56:17;;;;;;;43.03;22.63;;;14.90;99.90;;;;;;4976619;28;20598;-69
2021/09/03 03:58:44;;;;;;;41.75;21.25;;;14.90;99.90;;;;;;4977276;28;20197;-69
2021/09/03 04:01:10;;;;;;;41.17;19.48;;;14.90;99.90;;;;;;4960627;28;20213;-69
2021/09/03 04:03:36;;;;;;;42.55;20.60;;;14.80;99.90;;;;;;4962246;28;20189;-70
2021/09/03 04:06:02;;;;;;;39.00;20.27;;;14.90;99.90;;;;;;4974847;28;20185;-69
2021/09/03 04:08:27;;;;;;;35.55;18.60;;;14.80;99.90;;;;;;4974390;28;20190;-70
2021/09/03 04:10:53;;;;;;;38.88;18.95;;;14.90;99.90;;;;;;4974553;28;20201;-68
2021/09/03 04:13:19;;;;;;;36.20;18.65;;;14.90;99.90;;;;;;4974273;28;20670;-69
2021/09/03 04:15:46;;;;;;;38.83;19.48;;;14.90;99.90;;;;;;4982605;28;21003;-67
2021/09/03 04:18:11;;;;;;;39.38;18.73;;;14.90;99.90;;;;;;4945073;28;20210;-70
2021/09/03 04:20:37;;;;;;;39.33;18.30;;;14.80;99.90;;;;;;4976601;28;20209;-70
2021/09/03 04:23:03;;;;;;;33.08;18.70;;;14.80;99.90;;;;;;4980004;28;20239;-69
2021/09/03 04:25:29;;;;;;;34.53;19.58;;;14.80;99.90;;;;;;4971560;28;20190;-69
2021/09/03 04:27:54;;;;;;;36.92;18.65;;;14.80;99.90;;;;;;4975558;28;20658;-69
2021/09/03 04:30:20;;;;;;;37.92;18.48;;;14.80;99.90;;;;;;4981719;28;20193;-69
2021/09/03 04:32:46;;;;;;;40.58;19.88;;;14.80;99.90;;;;;;4973531;28;20193;-69
2021/09/03 04:35:11;;;;;;;37.40;18.33;;;14.80;99.90;;;;;;4974826;28;20190;-70
2021/09/03 04:37:45;;;;;;;40.97;18.50;;;14.80;99.90;;;;;;4977711;28;20200;-68
2021/09/03 04:40:11;;;;;;;39.92;18.70;;;14.80;99.90;;;;;;4978757;28;20261;-71
2021/09/03 04:42:37;;;;;;;40.47;18.77;;;14.80;99.90;;;;;;4977817;28;20201;-71
2021/09/03 04:45:03;;;;;;;31.38;16.95;;;14.80;99.90;;;;;;4976581;28;20197;-71
2021/09/03 04:47:29;;;;;;;36.30;17.77;;;14.80;99.90;;;;;;4955424;28;21690;-70
2021/09/03 04:49:54;;;;;;;40.63;18.60;;;14.80;99.90;;;;;;4978730;28;20186;-70
2021/09/03 04:52:20;;;;;;;36.97;18.23;;;14.80;99.90;;;;;;4980798;28;20197;-70
2021/09/03 04:54:45;;;;;;;33.22;17.85;;;14.80;99.90;;;;;;4972802;28;20775;-70
2021/09/03 04:57:11;;;;;;;;;;;14.80;99.90;;;;;;4975408;28;19935;-69
2021/09/03 04:59:37;;;;;;;37.20;17.92;;;14.80;99.90;;;;;;4964694;28;20210;-68
2021/09/03 05:02:03;;;;;;;32.85;16.83;;;14.80;99.90;;;;;;4974739;28;20205;-69
2021/09/03 05:04:28;;;;;;;37.83;18.60;;;14.80;99.90;;;;;;4977523;28;20610;-68
2021/09/03 05:06:54;;;;;;;33.92;18.95;;;14.90;99.90;;;;;;4963094;28;20190;-71
2021/09/03 05:09:19;;;;;;;31.10;15.95;;;14.90;99.90;;;;;;4978659;28;20181;-70
2021/09/03 05:11:45;;;;;;;34.33;17.13;;;14.90;99.90;;;;;;4980006;28;20944;-71
2021/09/03 05:14:10;;;;;;;30.08;15.48;;;15.00;99.90;;;;;;4981984;28;20231;-70
2021/09/03 05:16:36;;;;;;;33.90;16.92;;;15.00;99.90;;;;;;4975081;28;20305;-69
2021/09/03 05:19:02;;;;;;;35.35;15.68;;;15.00;99.90;;;;;;4982667;28;20288;-70
2021/09/03 05:21:27;;;;;;;37.78;16.80;;;15.00;99.90;;;;;;4964684;28;20337;-71
2021/09/03 05:23:53;;;;;;;31.48;17.27;;;15.00;99.90;;;;;;4980795;28;20204;-69
2021/09/03 05:26:19;;;;;;;30.17;14.73;;;15.10;99.90;;;;;;4981794;28;20204;-71
2021/09/03 05:28:44;;;;;;;35.30;16.23;;;15.00;99.90;;;;;;4982229;28;20208;-70
2021/09/03 05:31:10;;;;;;;30.88;15.90;;;15.10;99.90;;;;;;4979096;28;20188;-69
2021/09/03 05:33:35;;;;;;;30.50;16.30;;;15.10;99.90;;;;;;4980729;28;20189;-69
2021/09/03 05:36:01;;;;;;;39.95;17.73;;;15.10;99.90;;;;;;4979796;28;20217;-69
2021/09/03 05:38:27;;;;;;;32.88;16.55;;;15.10;99.90;;;;;;4977464;28;20267;-70
2021/09/03 05:40:53;;;;;;;34.08;16.10;;;15.10;99.90;;;;;;4980864;28;20217;-70
2021/09/03 05:43:20;;;;;;;34.85;16.63;;;15.10;99.90;;;;;;4978723;28;20984;-69
2021/09/03 05:45:46;;;;;;;34.72;17.20;;;15.10;99.90;;;;;;4956204;28;20252;-70
2021/09/03 05:48:11;;;;;;;30.42;17.48;;;15.10;99.90;;;;;;4972924;28;20215;-70
2021/09/03 05:50:37;;;;;;;29.42;15.23;;;15.10;99.90;;;;;;4973453;28;20196;-68
2021/09/03 05:53:03;;;;;;;26.60;15.43;;;15.10;99.90;;;;;;4977568;28;20200;-69
2021/09/03 05:55:29;;;;;;;34.17;17.63;;;15.20;99.90;;;;;;4973524;28;20199;-69
2021/09/03 05:57:54;;;;;;;29.02;13.85;;;15.20;99.90;;;;;;4976081;28;20257;-71
2021/09/03 06:00:20;;;;;;;29.52;15.65;;;15.20;99.90;;;;;;4972835;28;20212;-69
2021/09/03 06:02:46;;;;;;;34.20;16.58;;;15.20;99.90;;;;;;4960240;28;20194;-69
2021/09/03 06:05:12;;;;;;;34.60;16.38;;;15.20;99.90;;;;;;4958772;28;20182;-70
2021/09/03 06:07:37;;;;;;;33.50;16.90;;;15.20;99.90;;;;;;4977269;28;20544;-70
2021/09/03 06:10:03;;;;;;;;;;;15.20;99.90;;;;;;4974096;28;20359;-70
2021/09/03 06:12:29;;;;;;;;;;;15.20;99.90;;;;;;4978596;28;19953;-69
2021/09/03 06:14:54;;;;;;;;;;;15.30;99.90;;;;;;4966777;28;19962;-71
2021/09/03 06:17:20;;;;;;;;;;;15.30;99.90;;;;;;4983330;28;19973;-69
2021/09/03 06:19:45;;;;;;;;;;;15.30;99.90;;;;;;4976189;28;19946;-70
2021/09/03 06:22:11;;;;;;;;;;;15.30;99.90;;;;;;4982275;28;19954;-70
2021/09/03 06:24:36;;;;;;;;;;;15.30;99.90;;;;;;4979480;28;19951;-70
2021/09/03 06:27:03;;;;;;;;;;;15.30;99.90;;;;;;4979593;28;19950;-70
2021/09/03 06:29:42;;;;;;;;;;;15.40;99.90;;;;;;4977618;28;19977;-69
2021/09/03 06:32:14;;;;;;;;;;;15.40;99.90;;;;;;4977837;28;19950;-68
2021/09/03 06:34:41;;;;;;;;;;;15.40;99.90;;;;;;4979821;28;19950;-69
2021/09/03 06:37:08;;;;;;;;;;;15.40;99.90;;;;;;4972042;28;19966;-71
2021/09/03 06:39:33;;;;;;;;;;;15.40;99.90;;;;;;4964843;28;19950;-71
2021/09/03 06:41:59;;;;;;;;;;;15.50;99.90;;;;;;4975239;28;20021;-71
2021/09/03 06:44:24;;;;;;;;;;;15.50;99.90;;;;;;4959988;28;19947;-69
2021/09/03 06:46:50;;;;;;;28.42;16.08;;;15.50;99.90;;;;;;4979112;28;20052;-70
2021/09/03 06:49:16;;;;;;;29.40;14.52;;;15.50;99.90;;;;;;4960442;28;20201;-70
2021/09/03 06:51:42;;;;;;;36.58;18.55;;;15.60;99.90;;;;;;4978672;28;20182;-70
2021/09/03 06:54:07;;;;;;;33.95;15.60;;;15.60;99.90;;;;;;4979357;28;20194;-70
2021/09/03 06:56:33;;;;;;;32.72;16.90;;;15.60;99.90;;;;;;4977997;28;20678;-71
2021/09/03 06:59:00;;;;;;;37.55;18.33;;;15.60;99.90;;;;;;4958047;28;20210;-70
2021/09/03 07:01:26;;;;;;;40.47;18.55;;;15.60;99.90;;;;;;4976640;28;20883;-69
2021/09/03 07:03:52;;;;;;;34.30;18.55;;;15.70;99.90;;;;;;4975070;28;20320;-69
2021/09/03 07:06:17;;;;;;;33.90;18.35;;;15.70;99.90;;;;;;4976053;28;20253;-68
2021/09/03 07:08:43;;;;;;;30.20;16.42;;;15.80;99.90;;;;;;4980584;28;20260;-69
2021/09/03 07:11:09;;;;;;;33.83;16.77;;;15.80;99.90;;;;;;4960855;28;20208;-70
2021/09/03 07:13:35;;;;;;;29.13;15.30;;;15.80;99.90;;;;;;4977100;28;20190;-70
2021/09/03 07:16:02;;;;;;;27.15;14.23;;;15.80;99.90;;;;;;4981266;28;20863;-69
2021/09/03 07:18:27;;;;;;;37.00;18.08;;;15.90;99.90;;;;;;4981780;28;20204;-70
2021/09/03 07:20:53;;;;;;;35.50;18.27;;;15.90;99.90;;;;;;4950078;28;20815;-70
2021/09/03 07:23:18;;;;;;;32.15;16.83;;;15.90;99.90;;;;;;4985509;28;20203;-69
2021/09/03 07:25:44;;;;;;;34.72;14.98;;;16.00;99.90;;;;;;4978929;28;20186;-69
2021/09/03 07:28:10;;;;;;;26.80;14.93;;;16.00;99.90;;;;;;4983644;28;20235;-69
2021/09/03 07:30:35;;;;;;;39.60;18.55;;;16.00;99.90;;;;;;4977837;28;20197;-69
2021/09/03 07:33:01;;;;;;;32.85;18.52;;;16.00;99.90;;;;;;4954391;28;20647;-71
2021/09/03 07:35:27;;;;;;;35.35;17.50;;;16.10;99.90;;;;;;4977892;28;20189;-70
2021/09/03 07:37:52;;;;;;;35.58;20.35;;;16.10;99.90;;;;;;4976038;28;20209;-70
2021/09/03 07:40:18;;;;;;;36.90;20.15;;;16.20;99.90;;;;;;4971684;28;20210;-69
2021/09/03 07:42:44;;;;;;;44.88;21.83;;;16.20;99.90;;;;;;4973726;28;20200;-72
2021/09/03 07:45:11;;;;;;;40.35;19.77;;;16.30;99.90;;;;;;4977959;28;20189;-70
2021/09/03 07:47:37;;;;;;;44.60;20.95;;;16.30;99.90;;;;;;4976024;28;20221;-69
2021/09/03 07:50:03;;;;;;;32.80;20.10;;;16.40;99.90;;;;;;4986744;28;20225;-71
2021/09/03 07:52:29;;;;;;;36.22;19.67;;;16.50;99.90;;;;;;4960948;28;20208;-71
2021/09/03 07:54:55;;;;;;;39.45;17.38;;;16.50;99.90;;;;;;4982004;28;20651;-71
2021/09/03 07:57:20;;;;;;;;;;;16.60;99.90;;;;;;4982724;28;20223;-70
2021/09/03 07:59:46;;;;;;;35.30;18.20;;;16.70;99.90;;;;;;4982613;28;20183;-71
2021/09/03 08:02:11;;;;;;;34.65;16.60;;;16.80;99.90;;;;;;4962730;28;20270;-70
2021/09/03 08:04:37;;;;;;;31.27;17.40;;;16.80;99.90;;;;;;4981161;28;20193;-68
2021/09/03 08:07:03;;;;;;;35.60;18.63;;;16.90;99.90;;;;;;4980413;28;20185;-70
2021/09/03 08:09:28;;;;;;;38.03;19.08;;;16.90;99.90;;;;;;4964977;28;20199;-70
2021/09/03 08:11:54;;;;;;;;;;;17.00;99.90;;;;;;4983507;28;20193;-70
2021/09/03 08:14:20;;;;;;;36.22;19.98;;;17.10;99.90;;;;;;4981139;28;20053;-71
2021/09/03 08:16:45;;;;;;;33.08;17.60;;;17.20;99.90;;;;;;4980989;28;20229;-71
2021/09/03 08:19:11;;;;;;;;;;;17.30;99.90;;;;;;4980026;28;20092;-70
2021/09/03 08:21:36;;;;;;;39.58;19.90;;;17.40;99.90;;;;;;4966434;28;20194;-70
2021/09/03 08:24:03;;;;;;;32.40;17.60;;;17.50;99.90;;;;;;4963275;28;20189;-70
2021/09/03 08:26:29;;;;;;;30.42;15.77;;;17.60;99.90;;;;;;4983028;28;20197;-70
2021/09/03 08:28:55;;;;;;;34.45;18.00;;;17.60;99.90;;;;;;4983278;28;20197;-69
2021/09/03 08:31:22;;;;;;;37.95;17.48;;;17.70;99.90;;;;;;4963875;28;20361;-69
2021/09/03 08:33:49;;;;;;;31.77;15.07;;;17.90;99.90;;;;;;4983942;28;20193;-69
2021/09/03 08:36:15;;;;;;;27.15;16.08;;;18.00;99.90;;;;;;4965543;28;20193;-70
2021/09/03 08:38:40;;;;;;;30.30;18.17;;;18.10;99.90;;;;;;4964001;28;20225;-69
2021/09/03 08:41:06;;;;;;;29.58;17.20;;;18.30;99.90;;;;;;4980752;28;20271;-70
2021/09/03 08:43:32;;;;;;;28.38;16.00;;;18.50;99.90;;;;;;4979799;28;20207;-69
2021/09/03 08:45:57;;;;;;;30.10;14.68;;;18.70;99.90;;;;;;4981071;28;20170;-69
2021/09/03 08:48:24;;;;;;;;;;;19.00;99.90;;;;;;4984635;28;20022;-70
2021/09/03 08:50:52;;;;;;;27.73;14.65;;;19.40;99.90;;;;;;4965131;28;19921;-69
2021/09/03 08:53:18;;;;;;;;;;;19.80;99.90;;;;;;4977407;28;20050;-70
2021/09/03 08:55:49;;;;;;;28.05;14.90;;;20.30;99.90;;;;;;4983544;28;20067;-69
2021/09/03 08:58:15;;;;;;;21.67;12.68;;;20.70;99.90;;;;;;4976643;28;20688;-71
2021/09/03 09:00:41;;;;;;;;;;;21.10;99.90;;;;;;4982447;28;20052;-72
2021/09/03 09:03:13;;;;;;;;;;;21.40;99.50;;;;;;4979713;28;19933;-72
2021/09/03 09:05:50;;;;;;;;;;;21.60;98.30;;;;;;4981097;28;20379;-73
2021/09/03 09:08:16;;;;;;;;;;;21.80;97.50;;;;;;4983805;28;19972;-72
2021/09/03 09:10:46;;;;;;;;;;;21.90;96.60;;;;;;4979723;28;19910;-70
2021/09/03 09:13:12;;;;;;;;;;;22.10;95.60;;;;;;4976612;28;19921;-70
2021/09/03 09:15:38;;;;;;;;;;;22.10;94.80;;;;;;4976685;28;19941;-71
2021/09/03 09:18:04;;;;;;;;;;;22.20;94.40;;;;;;4979006;28;19913;-71
2021/09/03 09:20:29;;;;;;;22.33;12.73;;;22.40;94.10;;;;;;4969771;28;20749;-70
2021/09/03 09:23:03;;;;;;;15.35;8.82;;;22.60;93.90;;;;;;4981657;28;20168;-70
2021/09/03 09:25:30;;;;;;;;;;;22.80;93.30;;;;;;4979652;28;20870;-71
2021/09/03 09:28:14;;;;;;;17.42;9.70;;;23.10;93.20;;;;;;4981711;28;19972;-70
2021/09/03 09:30:43;;;;;;;25.35;11.30;;;23.40;92.40;;;;;;4979687;28;20204;-70
2021/09/03 09:33:16;;;;;;;22.25;11.85;;;23.70;92.10;;;;;;4979066;28;20263;-70
2021/09/03 09:35:54;;;;;;;18.92;9.73;;;24.10;91.00;;;;;;4980213;28;20272;-71
2021/09/03 09:38:25;;;;;;;19.00;9.68;;;24.60;89.90;;;;;;4980246;28;20626;-71
2021/09/03 09:40:57;;;;;;;21.75;10.45;;;25.20;87.60;;;;;;4980145;28;20212;-72
2021/09/03 09:43:31;;;;;;;;;;;25.80;84.80;;;;;;4962733;28;20102;-71
2021/09/03 09:46:11;;;;;;;12.10;7.53;;;26.30;82.00;;;;;;4982656;28;20193;-72
2021/09/03 09:48:49;;;;;;;;;;;27.00;78.60;;;;;;4978593;28;20411;-72
2021/09/03 09:51:28;;;;;;;13.73;8.05;;;27.60;75.80;;;;;;4985358;28;20575;-72
2021/09/03 09:54:09;;;;;;;13.80;7.50;;;28.10;72.90;;;;;;4984400;28;20280;-72
2021/09/03 09:56:37;;;;;;;14.07;6.65;;;28.60;69.50;;;;;;4982641;28;20385;-69
2021/09/03 09:59:04;;;;;;;15.70;7.63;;;28.90;66.80;;;;;;4985885;28;20717;-70
2021/09/03 10:01:33;;;;;;;16.15;8.50;;;29.20;64.20;;;;;;4985561;28;20219;-70
2021/09/03 10:04:01;;;;;;;;;;;29.60;61.80;;;;;;4980864;28;20799;-68
2021/09/03 10:06:29;;;;;;;;;;;30.10;59.80;;;;;;4981319;28;20991;-70
2021/09/03 10:08:57;;;;;;;;;;;30.50;58.30;;;;;;4986100;28;20342;-69
2021/09/03 10:11:23;;;;;;;;;;;30.90;56.50;;;;;;4962492;28;20413;-70
2021/09/03 10:13:49;;;;;;;12.93;6.82;;;31.30;54.60;;;;;;4985021;28;20380;-68
2021/09/03 10:16:15;;;;;;;;;;;31.70;53.50;;;;;;4980451;28;20057;-69
2021/09/03 10:18:43;;;;;;;;;;;32.10;52.00;;;;;;4980992;28;19955;-69
2021/09/03 10:21:10;;;;;;;12.95;6.97;;;32.40;50.60;;;;;;4984801;28;20056;-70
2021/09/03 10:23:54;;;;;;;12.02;6.45;;;32.80;49.50;;;;;;4978134;28;20193;-69
2021/09/03 10:26:26;;;;;;;11.80;5.80;;;33.20;48.60;;;;;;4984488;28;20196;-71
2021/09/03 10:29:33;;;;;;;14.93;7.40;;;33.50;47.50;;;;;;4983863;28;20248;-69
2021/09/03 10:32:07;;;;;;;14.95;7.05;;;33.90;47.20;;;;;;4924056;29;20458;-69
2021/09/03 10:34:39;;;;;;;11.43;6.40;;;34.30;45.60;;;;;;4924316;29;21151;-70
2021/09/03 10:37:19;;;;;;;14.02;7.78;;;34.90;44.30;;;;;;4949764;28;20236;-70
2021/09/03 10:39:46;;;;;;;10.90;6.60;;;35.40;43.00;;;;;;4981950;28;20189;-69
2021/09/03 10:42:31;;;;;;;11.35;6.65;;;35.80;42.10;;;;;;4984885;28;20200;-70
2021/09/03 10:45:08;;;;;;;18.05;7.97;;;36.30;41.10;;;;;;4982437;28;20205;-71
2021/09/03 10:47:46;;;;;;;14.18;7.15;;;36.60;40.30;;;;;;4982148;28;20201;-69
2021/09/03 10:50:22;;;;;;;14.57;7.20;;;36.90;39.50;;;;;;4967096;28;20198;-70
2021/09/03 10:53:02;;;;;;;14.63;6.97;;;36.90;39.20;;;;;;4986235;28;20192;-68
2021/09/03 10:55:50;;;;;;;10.95;6.80;;;36.60;39.30;;;;;;4982584;28;20196;-69
2021/09/03 10:58:48;;;;;;;12.55;7.03;;;36.20;39.70;;;;;;4980035;28;20204;-69
2021/09/03 11:01:14;;;;;;;15.07;7.50;;;35.90;40.10;;;;;;4982764;28;20212;-69
2021/09/03 11:03:52;;;;;;;13.68;7.03;;;35.80;40.30;;;;;;4965539;28;20244;-70
2021/09/03 11:06:36;;;;;;;11.77;7.00;;;35.70;39.80;;;;;;4984521;28;20250;-70
2021/09/03 11:09:15;;;;;;;12.18;7.03;;;35.50;39.90;;;;;;4978376;28;20212;-71
2021/09/03 11:11:42;;;;;;;13.82;7.97;;;35.40;40.20;;;;;;4984317;28;20291;-71
2021/09/03 11:14:14;;;;;;;13.93;7.15;;;35.40;40.00;;;;;;4982155;28;20229;-70
2021/09/03 11:16:42;;;;;;;11.70;7.22;;;35.40;39.70;;;;;;4966268;28;20192;-70
2021/09/03 11:19:13;;;;;;;14.10;8.35;;;35.50;39.70;;;;;;4980095;28;20204;-72
2021/09/03 11:21:42;;;;;;;13.63;7.40;;;35.70;39.00;;;;;;4969059;28;20218;-71
2021/09/03 11:24:10;;;;;;;13.60;7.00;;;35.90;38.60;;;;;;4984327;28;20195;-72
2021/09/03 11:26:38;;;;;;;13.10;6.88;;;36.20;38.10;;;;;;4966926;28;20182;-71
2021/09/03 11:29:06;;;;;;;14.32;6.97;;;36.70;37.80;;;;;;4984006;28;20193;-71
2021/09/03 11:31:35;;;;;;;14.60;7.38;;;37.10;37.30;;;;;;4981285;28;20657;-71
2021/09/03 11:34:06;;;;;;;11.25;6.07;;;37.60;36.60;;;;;;4985546;28;20205;-71
2021/09/03 11:36:50;;;;;;;12.35;6.40;;;38.10;36.00;;;;;;4965614;28;20643;-72
2021/09/03 11:39:16;;;;;;;15.63;6.80;;;38.30;35.50;;;;;;4981265;28;20184;-68
2021/09/03 11:41:51;;;;;;;11.27;6.55;;;38.70;35.00;;;;;;4982624;28;20208;-69
2021/09/03 11:44:17;;;;;;;13.68;7.13;;;38.90;34.50;;;;;;4979358;28;20653;-70
2021/09/03 11:46:42;;;;;;;14.93;8.02;;;39.00;33.90;;;;;;4984207;28;20184;-69
2021/09/03 11:49:09;;;;;;;13.63;6.68;;;39.10;33.60;;;;;;4984627;28;20177;-68
2021/09/03 11:51:35;;;;;;;12.75;6.60;;;39.20;33.30;;;;;;4977327;28;20223;-72
2021/09/03 11:54:02;;;;;;;10.95;5.80;;;39.40;33.40;;;;;;4983305;28;20185;-69
2021/09/03 11:56:28;;;;;;;10.27;5.55;;;39.60;33.20;;;;;;4981856;28;20190;-70
2021/09/03 11:58:54;;;;;;;9.68;5.65;;;39.80;32.90;;;;;;4963397;28;20188;-69
2021/09/03 12:01:22;;;;;;;13.85;7.55;;;40.00;32.70;;;;;;4964110;28;20220;-70
2021/09/03 12:03:50;;;;;;;15.32;7.28;;;40.20;32.10;;;;;;4983625;28;20663;-69
2021/09/03 12:06:18;;;;;;;10.10;5.93;;;40.20;31.90;;;;;;4978232;28;20193;-70
2021/09/03 12:08:44;;;;;;;13.38;6.88;;;39.90;32.00;;;;;;4963253;28;20197;-72
2021/09/03 12:11:16;;;;;;;12.02;7.13;;;39.60;32.30;;;;;;4983469;28;20282;-71
2021/09/03 12:13:49;;;;;;;13.13;6.78;;;39.20;32.60;;;;;;4982188;28;20239;-70
2021/09/03 12:16:23;;;;;;;14.85;6.97;;;39.20;32.80;;;;;;4979886;28;20948;-69
2021/09/03 12:18:56;;;;;;;18.05;7.53;;;39.20;32.70;;;;;;4981996;28;20188;-70
2021/09/03 12:21:27;;;;;;;15.60;7.85;;;39.30;32.60;;;;;;4968544;28;20193;-73
2021/09/03 12:24:00;;;;;;;10.13;5.85;;;39.50;32.10;;;;;;4966053;28;20189;-73
2021/09/03 12:26:37;;;;;;;12.95;6.70;;;39.60;32.10;;;;;;4980884;28;20647;-73
2021/09/03 12:29:07;;;;;;;14.32;6.57;;;39.70;31.80;;;;;;4980920;28;20196;-71
2021/09/03 12:31:33;;;;;;;12.15;6.53;;;39.90;31.60;;;;;;4980648;28;20970;-70
2021/09/03 12:34:06;;;;;;;10.80;5.88;;;40.10;31.50;;;;;;4983070;28;20420;-73
2021/09/03 12:36:35;;;;;;;14.07;7.38;;;40.20;31.20;;;;;;4981685;28;20200;-71
2021/09/03 12:39:05;;;;;;;14.07;6.63;;;40.10;31.10;;;;;;4949525;28;20218;-71
2021/09/03 12:41:33;;;;;;;11.40;4.95;;;40.10;31.10;;;;;;4965428;28;20191;-73